sensor_id;sensor_type;location;lat;lon;timestamp;temperature;humidity
70166;SHT30;57541;47.408;18.822;2023-09-30T00:00:00;12.87;99.99
70166;SHT30;57541;47.408;18.822;2023-09-30T00:00:32;12.69;99.99
70166;SHT30;57541;47.408;18.822;2023-09-30T00:01:11;12.69;99.99
70166;SHT30;57541;47.408;18.822;2023-09-30T00:01:43;12.77;99.99
70166;SHT30;57541;47.408;18.822;2023-09-30T00:02:15;12.76;99.99
70166;SHT30;57541;47.408;18.822;2023-09-30T00:02:46;12.58;99.99
70166;SHT30;57541;47.408;18.822;2023-09-30T00:03:18;12.50;99.99
70166;SHT30;57541;47.408;18.822;2023-09-30T00:03:50;12.46;99.99
70166;SHT30;57541;47.408;18.822;2023-09-30T00:04:22;12.50;99.99
70166;SHT30;57541;47.408;18.822;2023-09-30T00:04:54;12.53;99.99
70166;SHT30;57541;47.408;18.822;2023-09-30T00:05:26;12.60;99.99
70166;SHT30;57541;47.408;18.822;2023-09-30T00:05:57;12.60;99.99
70166;SHT30;57541;47.408;18.822;2023-09-30T00:06:29;12.62;99.99
70166;SHT30;57541;47.408;18.822;2023-09-30T00:07:01;12.65;99.99
70166;SHT30;57541;47.408;18.822;2023-09-30T00:07:33;12.69;99.99
70166;SHT30;57541;47.408;18.822;2023-09-30T00:08:05;12.66;99.99
70166;SHT30;57541;47.408;18.822;2023-09-30T00:08:38;12.72;99.99
70166;SHT30;57541;47.408;18.822;2023-09-30T00:09:11;12.76;99.99
70166;SHT30;57541;47.408;18.822;2023-09-30T00:09:43;12.76;99.99
70166;SHT30;57541;47.408;18.822;2023-09-30T00:10:15;12.73;99.99
70166;SHT30;57541;47.408;18.822;2023-09-30T00:10:47;12.79;99.99
70166;SHT30;57541;47.408;18.822;2023-09-30T00:11:19;12.82;99.99
70166;SHT30;57541;47.408;18.822;2023-09-30T00:11:51;12.83;99.99
70166;SHT30;57541;47.408;18.822;2023-09-30T00:12:22;12.86;99.99
70166;SHT30;57541;47.408;18.822;2023-09-30T00:12:54;12.89;99.99
70166;SHT30;57541;47.408;18.822;2023-09-30T00:13:26;12.80;99.99
70166;SHT30;57541;47.408;18.822;2023-09-30T00:13:58;12.80;99.99
70166;SHT30;57541;47.408;18.822;2023-09-30T00:14:30;12.90;99.99
70166;SHT30;57541;47.408;18.822;2023-09-30T00:15:02;12.87;99.99
70166;SHT30;57541;47.408;18.822;2023-09-30T00:15:35;12.76;99.99
70166;SHT30;57541;47.408;18.822;2023-09-30T00:16:07;12.85;99.99
70166;SHT30;57541;47.408;18.822;2023-09-30T00:16:39;12.86;99.99
70166;SHT30;57541;47.408;18.822;2023-09-30T00:17:11;12.80;99.99
70166;SHT30;57541;47.408;18.822;2023-09-30T00:17:42;12.79;99.99
70166;SHT30;57541;47.408;18.822;2023-09-30T00:18:14;12.80;99.99
70166;SHT30;57541;47.408;18.822;2023-09-30T00:18:46;12.82;99.99
70166;SHT30;57541;47.408;18.822;2023-09-30T00:19:18;12.73;99.99
70166;SHT30;57541;47.408;18.822;2023-09-30T00:19:50;12.86;99.99
70166;SHT30;57541;47.408;18.822;2023-09-30T00:20:21;12.82;99.99
70166;SHT30;57541;47.408;18.822;2023-09-30T00:20:54;12.92;99.99
70166;SHT30;57541;47.408;18.822;2023-09-30T00:21:26;12.96;99.99
70166;SHT30;57541;47.408;18.822;2023-09-30T00:21:58;12.93;99.99
70166;SHT30;57541;47.408;18.822;2023-09-30T00:22:31;12.93;99.99
70166;SHT30;57541;47.408;18.822;2023-09-30T00:23:03;12.95;99.99
70166;SHT30;57541;47.408;18.822;2023-09-30T00:23:35;12.95;99.99
70166;SHT30;57541;47.408;18.822;2023-09-30T00:24:07;12.86;99.99
70166;SHT30;57541;47.408;18.822;2023-09-30T00:24:38;12.92;99.99
70166;SHT30;57541;47.408;18.822;2023-09-30T00:25:10;12.87;99.99
70166;SHT30;57541;47.408;18.822;2023-09-30T00:25:42;13.02;99.99
70166;SHT30;57541;47.408;18.822;2023-09-30T00:26:14;13.06;99.99
70166;SHT30;57541;47.408;18.822;2023-09-30T00:26:45;13.06;99.99
70166;SHT30;57541;47.408;18.822;2023-09-30T00:27:17;13.04;99.99
70166;SHT30;57541;47.408;18.822;2023-09-30T00:27:49;12.95;99.99
70166;SHT30;57541;47.408;18.822;2023-09-30T00:28:21;12.95;99.99
70166;SHT30;57541;47.408;18.822;2023-09-30T00:28:52;12.93;99.99
70166;SHT30;57541;47.408;18.822;2023-09-30T00:29:24;12.86;99.99
70166;SHT30;57541;47.408;18.822;2023-09-30T00:29:56;12.85;99.99
70166;SHT30;57541;47.408;18.822;2023-09-30T00:30:27;12.89;99.99
70166;SHT30;57541;47.408;18.822;2023-09-30T00:30:59;12.79;99.99
70166;SHT30;57541;47.408;18.822;2023-09-30T00:31:31;12.76;99.99
70166;SHT30;57541;47.408;18.822;2023-09-30T00:32:04;12.70;99.99
70166;SHT30;57541;47.408;18.822;2023-09-30T00:32:35;12.65;99.99
70166;SHT30;57541;47.408;18.822;2023-09-30T00:33:07;12.63;99.99
70166;SHT30;57541;47.408;18.822;2023-09-30T00:33:39;12.62;99.99
70166;SHT30;57541;47.408;18.822;2023-09-30T00:34:11;12.65;99.99
70166;SHT30;57541;47.408;18.822;2023-09-30T00:34:43;12.63;99.99
70166;SHT30;57541;47.408;18.822;2023-09-30T00:35:15;12.55;99.99
70166;SHT30;57541;47.408;18.822;2023-09-30T00:35:47;12.52;99.99
70166;SHT30;57541;47.408;18.822;2023-09-30T00:36:19;12.53;99.99
70166;SHT30;57541;47.408;18.822;2023-09-30T00:36:51;12.48;99.99
70166;SHT30;57541;47.408;18.822;2023-09-30T00:37:23;12.48;99.99
70166;SHT30;57541;47.408;18.822;2023-09-30T00:37:55;12.55;99.99
70166;SHT30;57541;47.408;18.822;2023-09-30T00:38:27;12.56;99.99
70166;SHT30;57541;47.408;18.822;2023-09-30T00:38:59;12.48;99.99
70166;SHT30;57541;47.408;18.822;2023-09-30T00:39:32;12.49;99.99
70166;SHT30;57541;47.408;18.822;2023-09-30T00:40:05;12.48;99.99
70166;SHT30;57541;47.408;18.822;2023-09-30T00:40:37;12.50;99.99
70166;SHT30;57541;47.408;18.822;2023-09-30T00:41:08;12.52;99.99
70166;SHT30;57541;47.408;18.822;2023-09-30T00:41:40;12.44;99.99
70166;SHT30;57541;47.408;18.822;2023-09-30T00:42:12;12.46;99.99
70166;SHT30;57541;47.408;18.822;2023-09-30T00:42:44;12.50;99.99
70166;SHT30;57541;47.408;18.822;2023-09-30T00:43:19;12.48;99.99
70166;SHT30;57541;47.408;18.822;2023-09-30T00:43:52;12.48;99.99
70166;SHT30;57541;47.408;18.822;2023-09-30T00:44:27;12.49;99.99
70166;SHT30;57541;47.408;18.822;2023-09-30T00:44:59;12.46;99.99
70166;SHT30;57541;47.408;18.822;2023-09-30T00:45:30;12.41;99.99
70166;SHT30;57541;47.408;18.822;2023-09-30T00:46:09;12.38;99.99
70166;SHT30;57541;47.408;18.822;2023-09-30T00:46:41;12.35;99.99
70166;SHT30;57541;47.408;18.822;2023-09-30T00:47:14;12.45;99.99
70166;SHT30;57541;47.408;18.822;2023-09-30T00:47:46;12.41;99.99
70166;SHT30;57541;47.408;18.822;2023-09-30T00:48:18;12.45;99.99
70166;SHT30;57541;47.408;18.822;2023-09-30T00:48:50;12.44;99.99
70166;SHT30;57541;47.408;18.822;2023-09-30T00:49:24;12.39;99.99
70166;SHT30;57541;47.408;18.822;2023-09-30T00:49:56;12.41;99.99
70166;SHT30;57541;47.408;18.822;2023-09-30T00:50:28;12.46;99.99
70166;SHT30;57541;47.408;18.822;2023-09-30T00:51:00;12.39;99.99
70166;SHT30;57541;47.408;18.822;2023-09-30T00:51:32;12.42;99.99
70166;SHT30;57541;47.408;18.822;2023-09-30T00:52:05;12.48;99.99
70166;SHT30;57541;47.408;18.822;2023-09-30T00:52:38;12.48;99.99
70166;SHT30;57541;47.408;18.822;2023-09-30T00:53:10;12.45;99.99
70166;SHT30;57541;47.408;18.822;2023-09-30T00:53:42;12.50;99.99
70166;SHT30;57541;47.408;18.822;2023-09-30T00:54:14;12.50;99.99
70166;SHT30;57541;47.408;18.822;2023-09-30T00:54:46;12.39;99.99
70166;SHT30;57541;47.408;18.822;2023-09-30T00:55:19;12.38;99.99
70166;SHT30;57541;47.408;18.822;2023-09-30T00:55:52;12.34;99.99
70166;SHT30;57541;47.408;18.822;2023-09-30T00:56:26;12.38;99.99
70166;SHT30;57541;47.408;18.822;2023-09-30T00:56:58;12.45;99.99
70166;SHT30;57541;47.408;18.822;2023-09-30T00:57:33;12.52;99.99
70166;SHT30;57541;47.408;18.822;2023-09-30T00:58:06;12.56;99.99
70166;SHT30;57541;47.408;18.822;2023-09-30T00:58:38;12.50;99.99
70166;SHT30;57541;47.408;18.822;2023-09-30T00:59:12;12.53;99.99
70166;SHT30;57541;47.408;18.822;2023-09-30T00:59:44;12.46;99.99
70166;SHT30;57541;47.408;18.822;2023-09-30T01:00:16;12.46;99.99
70166;SHT30;57541;47.408;18.822;2023-09-30T01:00:48;12.44;99.99
70166;SHT30;57541;47.408;18.822;2023-09-30T01:01:20;12.38;99.99
70166;SHT30;57541;47.408;18.822;2023-09-30T01:01:54;12.42;99.99
70166;SHT30;57541;47.408;18.822;2023-09-30T01:02:29;12.45;99.99
70166;SHT30;57541;47.408;18.822;2023-09-30T01:03:00;12.46;99.99
70166;SHT30;57541;47.408;18.822;2023-09-30T01:03:36;12.50;99.99
70166;SHT30;57541;47.408;18.822;2023-09-30T01:04:09;12.42;99.99
70166;SHT30;57541;47.408;18.822;2023-09-30T01:04:43;12.44;99.99
70166;SHT30;57541;47.408;18.822;2023-09-30T01:05:15;12.44;99.99
70166;SHT30;57541;47.408;18.822;2023-09-30T01:05:47;12.38;99.99
70166;SHT30;57541;47.408;18.822;2023-09-30T01:06:19;12.39;99.99
70166;SHT30;57541;47.408;18.822;2023-09-30T01:06:51;12.24;99.99
70166;SHT30;57541;47.408;18.822;2023-09-30T01:07:22;12.22;99.99
70166;SHT30;57541;47.408;18.822;2023-09-30T01:07:54;12.28;99.99
70166;SHT30;57541;47.408;18.822;2023-09-30T01:08:26;12.25;99.99
70166;SHT30;57541;47.408;18.822;2023-09-30T01:08:58;12.24;99.99
70166;SHT30;57541;47.408;18.822;2023-09-30T01:09:31;12.14;99.99
70166;SHT30;57541;47.408;18.822;2023-09-30T01:10:03;12.14;99.99
70166;SHT30;57541;47.408;18.822;2023-09-30T01:10:34;12.20;99.99
70166;SHT30;57541;47.408;18.822;2023-09-30T01:11:06;12.14;99.99
70166;SHT30;57541;47.408;18.822;2023-09-30T01:11:40;12.13;99.99
70166;SHT30;57541;47.408;18.822;2023-09-30T01:12:12;12.17;99.99
70166;SHT30;57541;47.408;18.822;2023-09-30T01:12:44;12.17;99.99
70166;SHT30;57541;47.408;18.822;2023-09-30T01:13:16;12.08;99.99
70166;SHT30;57541;47.408;18.822;2023-09-30T01:13:47;12.13;99.99
70166;SHT30;57541;47.408;18.822;2023-09-30T01:14:28;12.16;99.99
70166;SHT30;57541;47.408;18.822;2023-09-30T01:15:00;12.16;99.99
70166;SHT30;57541;47.408;18.822;2023-09-30T01:15:32;12.14;99.99
70166;SHT30;57541;47.408;18.822;2023-09-30T01:16:05;12.04;99.99
70166;SHT30;57541;47.408;18.822;2023-09-30T01:16:37;12.07;99.99
70166;SHT30;57541;47.408;18.822;2023-09-30T01:17:09;12.05;99.99
70166;SHT30;57541;47.408;18.822;2023-09-30T01:17:43;12.07;99.99
70166;SHT30;57541;47.408;18.822;2023-09-30T01:18:14;12.02;99.99
70166;SHT30;57541;47.408;18.822;2023-09-30T01:18:47;12.04;99.99
70166;SHT30;57541;47.408;18.822;2023-09-30T01:19:18;11.79;99.99
70166;SHT30;57541;47.408;18.822;2023-09-30T01:19:50;11.76;99.99
70166;SHT30;57541;47.408;18.822;2023-09-30T01:20:24;11.83;99.99
70166;SHT30;57541;47.408;18.822;2023-09-30T01:20:56;11.84;99.99
70166;SHT30;57541;47.408;18.822;2023-09-30T01:21:28;11.70;99.99
70166;SHT30;57541;47.408;18.822;2023-09-30T01:22:00;11.60;99.99
70166;SHT30;57541;47.408;18.822;2023-09-30T01:22:34;11.59;99.99
70166;SHT30;57541;47.408;18.822;2023-09-30T01:23:05;11.65;99.99
70166;SHT30;57541;47.408;18.822;2023-09-30T01:23:37;11.66;99.99
70166;SHT30;57541;47.408;18.822;2023-09-30T01:24:10;11.59;99.99
70166;SHT30;57541;47.408;18.822;2023-09-30T01:24:42;11.66;99.99
70166;SHT30;57541;47.408;18.822;2023-09-30T01:25:14;11.71;99.99
70166;SHT30;57541;47.408;18.822;2023-09-30T01:25:46;11.74;99.99
70166;SHT30;57541;47.408;18.822;2023-09-30T01:26:17;11.84;99.99
70166;SHT30;57541;47.408;18.822;2023-09-30T01:26:49;11.90;99.99
70166;SHT30;57541;47.408;18.822;2023-09-30T01:27:21;11.80;99.99
70166;SHT30;57541;47.408;18.822;2023-09-30T01:27:53;11.91;99.99
70166;SHT30;57541;47.408;18.822;2023-09-30T01:28:25;11.98;99.99
70166;SHT30;57541;47.408;18.822;2023-09-30T01:28:58;12.00;99.99
70166;SHT30;57541;47.408;18.822;2023-09-30T01:29:29;12.00;99.99
70166;SHT30;57541;47.408;18.822;2023-09-30T01:30:01;12.00;99.99
70166;SHT30;57541;47.408;18.822;2023-09-30T01:30:33;12.01;99.99
70166;SHT30;57541;47.408;18.822;2023-09-30T01:31:05;12.02;99.99
70166;SHT30;57541;47.408;18.822;2023-09-30T01:31:37;12.07;99.99
70166;SHT30;57541;47.408;18.822;2023-09-30T01:32:10;12.10;99.99
70166;SHT30;57541;47.408;18.822;2023-09-30T01:32:41;12.02;99.99
70166;SHT30;57541;47.408;18.822;2023-09-30T01:33:13;11.95;99.99
70166;SHT30;57541;47.408;18.822;2023-09-30T01:33:45;11.97;99.99
70166;SHT30;57541;47.408;18.822;2023-09-30T01:34:17;11.93;99.99
70166;SHT30;57541;47.408;18.822;2023-09-30T01:34:49;11.95;99.99
70166;SHT30;57541;47.408;18.822;2023-09-30T01:35:21;11.93;99.99
70166;SHT30;57541;47.408;18.822;2023-09-30T01:35:53;12.00;99.99
70166;SHT30;57541;47.408;18.822;2023-09-30T01:36:25;12.05;99.99
70166;SHT30;57541;47.408;18.822;2023-09-30T01:36:57;12.02;99.99
70166;SHT30;57541;47.408;18.822;2023-09-30T01:37:29;12.02;99.99
70166;SHT30;57541;47.408;18.822;2023-09-30T01:38:01;12.02;99.99
70166;SHT30;57541;47.408;18.822;2023-09-30T01:38:32;12.02;99.99
70166;SHT30;57541;47.408;18.822;2023-09-30T01:39:04;12.08;99.99
70166;SHT30;57541;47.408;18.822;2023-09-30T01:39:36;12.13;99.99
70166;SHT30;57541;47.408;18.822;2023-09-30T01:40:08;12.10;99.99
70166;SHT30;57541;47.408;18.822;2023-09-30T01:40:43;12.16;99.99
70166;SHT30;57541;47.408;18.822;2023-09-30T01:41:15;12.20;99.99
70166;SHT30;57541;47.408;18.822;2023-09-30T01:41:48;12.18;99.99
70166;SHT30;57541;47.408;18.822;2023-09-30T01:42:19;12.16;99.99
70166;SHT30;57541;47.408;18.822;2023-09-30T01:42:51;12.16;99.99
70166;SHT30;57541;47.408;18.822;2023-09-30T01:43:23;12.14;99.99
70166;SHT30;57541;47.408;18.822;2023-09-30T01:43:54;12.13;99.99
70166;SHT30;57541;47.408;18.822;2023-09-30T01:44:27;12.11;99.99
70166;SHT30;57541;47.408;18.822;2023-09-30T01:44:59;12.14;99.99
70166;SHT30;57541;47.408;18.822;2023-09-30T01:45:30;12.07;99.99
70166;SHT30;57541;47.408;18.822;2023-09-30T01:46:02;12.11;99.99
70166;SHT30;57541;47.408;18.822;2023-09-30T01:46:34;12.02;99.99
70166;SHT30;57541;47.408;18.822;2023-09-30T01:47:06;12.02;99.99
70166;SHT30;57541;47.408;18.822;2023-09-30T01:47:37;12.05;99.99
70166;SHT30;57541;47.408;18.822;2023-09-30T01:48:10;12.04;99.99
70166;SHT30;57541;47.408;18.822;2023-09-30T01:48:43;12.01;99.99
70166;SHT30;57541;47.408;18.822;2023-09-30T01:49:14;11.97;99.99
70166;SHT30;57541;47.408;18.822;2023-09-30T01:49:47;11.94;99.99
70166;SHT30;57541;47.408;18.822;2023-09-30T01:50:18;11.94;99.99
70166;SHT30;57541;47.408;18.822;2023-09-30T01:50:51;12.00;99.99
70166;SHT30;57541;47.408;18.822;2023-09-30T01:51:23;11.98;99.99
70166;SHT30;57541;47.408;18.822;2023-09-30T01:51:55;12.01;99.99
70166;SHT30;57541;47.408;18.822;2023-09-30T01:52:27;12.00;99.99
70166;SHT30;57541;47.408;18.822;2023-09-30T01:52:58;11.94;99.99
70166;SHT30;57541;47.408;18.822;2023-09-30T01:53:30;11.91;99.99
70166;SHT30;57541;47.408;18.822;2023-09-30T01:54:02;11.91;99.99
70166;SHT30;57541;47.408;18.822;2023-09-30T01:54:34;11.97;99.99
70166;SHT30;57541;47.408;18.822;2023-09-30T01:55:06;12.00;99.99
70166;SHT30;57541;47.408;18.822;2023-09-30T01:55:38;12.00;99.99
70166;SHT30;57541;47.408;18.822;2023-09-30T01:56:10;12.02;99.99
70166;SHT30;57541;47.408;18.822;2023-09-30T01:56:41;11.98;99.99
70166;SHT30;57541;47.408;18.822;2023-09-30T01:57:13;11.87;99.99
70166;SHT30;57541;47.408;18.822;2023-09-30T01:57:45;11.90;99.99
70166;SHT30;57541;47.408;18.822;2023-09-30T01:58:16;11.90;99.99
70166;SHT30;57541;47.408;18.822;2023-09-30T01:58:49;11.87;99.99
70166;SHT30;57541;47.408;18.822;2023-09-30T01:59:20;11.90;99.99
70166;SHT30;57541;47.408;18.822;2023-09-30T01:59:52;11.90;99.99
70166;SHT30;57541;47.408;18.822;2023-09-30T02:00:24;11.90;99.99
70166;SHT30;57541;47.408;18.822;2023-09-30T02:01:03;11.90;99.99
70166;SHT30;57541;47.408;18.822;2023-09-30T02:01:35;11.83;99.99
70166;SHT30;57541;47.408;18.822;2023-09-30T02:02:07;11.81;99.99
70166;SHT30;57541;47.408;18.822;2023-09-30T02:02:40;11.84;99.99
70166;SHT30;57541;47.408;18.822;2023-09-30T02:03:13;11.87;99.99
70166;SHT30;57541;47.408;18.822;2023-09-30T02:03:45;11.86;99.99
70166;SHT30;57541;47.408;18.822;2023-09-30T02:04:17;11.84;99.99
70166;SHT30;57541;47.408;18.822;2023-09-30T02:04:49;11.88;99.99
70166;SHT30;57541;47.408;18.822;2023-09-30T02:05:20;11.88;99.99
70166;SHT30;57541;47.408;18.822;2023-09-30T02:05:52;11.91;99.99
70166;SHT30;57541;47.408;18.822;2023-09-30T02:06:24;11.93;99.99
70166;SHT30;57541;47.408;18.822;2023-09-30T02:06:55;11.88;99.99
70166;SHT30;57541;47.408;18.822;2023-09-30T02:07:27;11.90;99.99
70166;SHT30;57541;47.408;18.822;2023-09-30T02:07:59;11.77;99.99
70166;SHT30;57541;47.408;18.822;2023-09-30T02:08:31;11.80;99.99
70166;SHT30;57541;47.408;18.822;2023-09-30T02:09:03;11.79;99.99
70166;SHT30;57541;47.408;18.822;2023-09-30T02:09:36;11.80;99.99
70166;SHT30;57541;47.408;18.822;2023-09-30T02:10:08;11.79;99.99
70166;SHT30;57541;47.408;18.822;2023-09-30T02:10:40;11.79;99.99
70166;SHT30;57541;47.408;18.822;2023-09-30T02:11:12;11.76;99.99
70166;SHT30;57541;47.408;18.822;2023-09-30T02:11:45;11.79;99.99
70166;SHT30;57541;47.408;18.822;2023-09-30T02:12:17;11.83;99.99
70166;SHT30;57541;47.408;18.822;2023-09-30T02:12:49;11.77;99.99
70166;SHT30;57541;47.408;18.822;2023-09-30T02:13:20;11.80;99.99
70166;SHT30;57541;47.408;18.822;2023-09-30T02:13:52;11.83;99.99
70166;SHT30;57541;47.408;18.822;2023-09-30T02:14:24;11.80;99.99
70166;SHT30;57541;47.408;18.822;2023-09-30T02:14:58;11.79;99.99
70166;SHT30;57541;47.408;18.822;2023-09-30T02:15:30;11.76;99.99
70166;SHT30;57541;47.408;18.822;2023-09-30T02:16:02;11.79;99.99
70166;SHT30;57541;47.408;18.822;2023-09-30T02:16:33;11.80;99.99
70166;SHT30;57541;47.408;18.822;2023-09-30T02:17:05;11.74;99.99
70166;SHT30;57541;47.408;18.822;2023-09-30T02:17:37;11.59;99.99
70166;SHT30;57541;47.408;18.822;2023-09-30T02:18:09;11.60;99.99
70166;SHT30;57541;47.408;18.822;2023-09-30T02:18:43;11.65;99.99
70166;SHT30;57541;47.408;18.822;2023-09-30T02:19:16;11.59;99.99
70166;SHT30;57541;47.408;18.822;2023-09-30T02:19:48;11.65;99.99
70166;SHT30;57541;47.408;18.822;2023-09-30T02:20:21;11.67;99.99
70166;SHT30;57541;47.408;18.822;2023-09-30T02:20:57;11.69;99.99
70166;SHT30;57541;47.408;18.822;2023-09-30T02:21:31;11.69;99.99
70166;SHT30;57541;47.408;18.822;2023-09-30T02:22:02;11.66;99.99
70166;SHT30;57541;47.408;18.822;2023-09-30T02:22:34;11.73;99.99
70166;SHT30;57541;47.408;18.822;2023-09-30T02:23:10;11.71;99.99
70166;SHT30;57541;47.408;18.822;2023-09-30T02:23:47;11.79;99.99
70166;SHT30;57541;47.408;18.822;2023-09-30T02:24:19;11.71;99.99
70166;SHT30;57541;47.408;18.822;2023-09-30T02:24:51;11.69;99.99
70166;SHT30;57541;47.408;18.822;2023-09-30T02:25:23;11.70;99.99
70166;SHT30;57541;47.408;18.822;2023-09-30T02:25:54;11.59;99.99
70166;SHT30;57541;47.408;18.822;2023-09-30T02:26:26;11.65;99.99
70166;SHT30;57541;47.408;18.822;2023-09-30T02:26:59;11.67;99.99
70166;SHT30;57541;47.408;18.822;2023-09-30T02:27:30;11.66;99.99
70166;SHT30;57541;47.408;18.822;2023-09-30T02:28:02;11.59;99.99
70166;SHT30;57541;47.408;18.822;2023-09-30T02:28:34;11.66;99.99
70166;SHT30;57541;47.408;18.822;2023-09-30T02:29:06;11.59;99.99
70166;SHT30;57541;47.408;18.822;2023-09-30T02:29:39;11.59;99.99
70166;SHT30;57541;47.408;18.822;2023-09-30T02:30:11;11.62;99.99
70166;SHT30;57541;47.408;18.822;2023-09-30T02:30:47;11.70;99.99
70166;SHT30;57541;47.408;18.822;2023-09-30T02:31:20;11.71;99.99
70166;SHT30;57541;47.408;18.822;2023-09-30T02:31:52;11.76;99.99
70166;SHT30;57541;47.408;18.822;2023-09-30T02:32:26;11.76;99.99
70166;SHT30;57541;47.408;18.822;2023-09-30T02:32:57;11.66;99.99
70166;SHT30;57541;47.408;18.822;2023-09-30T02:33:29;11.71;99.99
70166;SHT30;57541;47.408;18.822;2023-09-30T02:34:01;11.66;99.99
70166;SHT30;57541;47.408;18.822;2023-09-30T02:34:34;11.66;99.99
70166;SHT30;57541;47.408;18.822;2023-09-30T02:35:07;11.73;99.99
70166;SHT30;57541;47.408;18.822;2023-09-30T02:35:44;11.62;99.99
70166;SHT30;57541;47.408;18.822;2023-09-30T02:36:16;11.62;99.99
70166;SHT30;57541;47.408;18.822;2023-09-30T02:36:48;11.60;99.99
70166;SHT30;57541;47.408;18.822;2023-09-30T02:37:20;11.70;99.99
70166;SHT30;57541;47.408;18.822;2023-09-30T02:37:52;11.77;99.99
70166;SHT30;57541;47.408;18.822;2023-09-30T02:38:24;11.77;99.99
70166;SHT30;57541;47.408;18.822;2023-09-30T02:38:56;11.81;99.99
70166;SHT30;57541;47.408;18.822;2023-09-30T02:39:29;11.79;99.99
70166;SHT30;57541;47.408;18.822;2023-09-30T02:40:05;11.69;99.99
70166;SHT30;57541;47.408;18.822;2023-09-30T02:40:41;11.76;99.99
70166;SHT30;57541;47.408;18.822;2023-09-30T02:41:16;11.80;99.99
70166;SHT30;57541;47.408;18.822;2023-09-30T02:41:48;11.81;99.99
70166;SHT30;57541;47.408;18.822;2023-09-30T02:42:21;11.83;99.99
70166;SHT30;57541;47.408;18.822;2023-09-30T02:42:55;11.80;99.99
70166;SHT30;57541;47.408;18.822;2023-09-30T02:43:27;11.69;99.99
70166;SHT30;57541;47.408;18.822;2023-09-30T02:43:58;11.74;99.99
70166;SHT30;57541;47.408;18.822;2023-09-30T02:44:30;11.77;99.99
70166;SHT30;57541;47.408;18.822;2023-09-30T02:45:03;11.76;99.99
70166;SHT30;57541;47.408;18.822;2023-09-30T02:45:35;11.80;99.99
70166;SHT30;57541;47.408;18.822;2023-09-30T02:46:07;11.77;99.99
70166;SHT30;57541;47.408;18.822;2023-09-30T02:46:40;11.80;99.99
70166;SHT30;57541;47.408;18.822;2023-09-30T02:47:11;11.84;99.99
70166;SHT30;57541;47.408;18.822;2023-09-30T02:47:43;11.87;99.99
70166;SHT30;57541;47.408;18.822;2023-09-30T02:48:15;11.91;99.99
70166;SHT30;57541;47.408;18.822;2023-09-30T02:48:47;11.97;99.99
70166;SHT30;57541;47.408;18.822;2023-09-30T02:49:19;11.93;99.99
70166;SHT30;57541;47.408;18.822;2023-09-30T02:49:50;11.91;99.99
70166;SHT30;57541;47.408;18.822;2023-09-30T02:50:22;11.97;99.99
70166;SHT30;57541;47.408;18.822;2023-09-30T02:50:54;11.95;99.99
70166;SHT30;57541;47.408;18.822;2023-09-30T02:51:26;12.00;99.99
70166;SHT30;57541;47.408;18.822;2023-09-30T02:51:58;12.05;99.99
70166;SHT30;57541;47.408;18.822;2023-09-30T02:52:30;12.00;99.99
70166;SHT30;57541;47.408;18.822;2023-09-30T02:53:02;11.91;99.99
70166;SHT30;57541;47.408;18.822;2023-09-30T02:53:35;11.94;99.99
70166;SHT30;57541;47.408;18.822;2023-09-30T02:54:07;11.95;99.99
70166;SHT30;57541;47.408;18.822;2023-09-30T02:54:39;11.98;99.99
70166;SHT30;57541;47.408;18.822;2023-09-30T02:55:11;11.98;99.99
70166;SHT30;57541;47.408;18.822;2023-09-30T02:55:43;11.98;99.99
70166;SHT30;57541;47.408;18.822;2023-09-30T02:56:15;11.94;99.99
70166;SHT30;57541;47.408;18.822;2023-09-30T02:56:46;11.95;99.99
70166;SHT30;57541;47.408;18.822;2023-09-30T02:57:18;11.90;99.99
70166;SHT30;57541;47.408;18.822;2023-09-30T02:57:50;11.91;99.99
70166;SHT30;57541;47.408;18.822;2023-09-30T02:58:24;11.97;99.99
70166;SHT30;57541;47.408;18.822;2023-09-30T02:58:56;11.94;99.99
70166;SHT30;57541;47.408;18.822;2023-09-30T02:59:28;11.98;99.99
70166;SHT30;57541;47.408;18.822;2023-09-30T02:59:59;11.98;99.99
70166;SHT30;57541;47.408;18.822;2023-09-30T03:00:32;12.01;99.99
70166;SHT30;57541;47.408;18.822;2023-09-30T03:01:04;12.00;99.99
70166;SHT30;57541;47.408;18.822;2023-09-30T03:01:36;11.98;99.99
70166;SHT30;57541;47.408;18.822;2023-09-30T03:02:09;11.90;99.99
70166;SHT30;57541;47.408;18.822;2023-09-30T03:02:40;11.84;99.99
70166;SHT30;57541;47.408;18.822;2023-09-30T03:03:13;11.88;99.99
70166;SHT30;57541;47.408;18.822;2023-09-30T03:03:44;11.79;99.99
70166;SHT30;57541;47.408;18.822;2023-09-30T03:04:16;11.84;99.99
70166;SHT30;57541;47.408;18.822;2023-09-30T03:04:50;11.91;99.99
70166;SHT30;57541;47.408;18.822;2023-09-30T03:05:23;11.93;99.99
70166;SHT30;57541;47.408;18.822;2023-09-30T03:05:55;11.97;99.99
70166;SHT30;57541;47.408;18.822;2023-09-30T03:06:27;11.95;99.99
70166;SHT30;57541;47.408;18.822;2023-09-30T03:06:58;12.01;99.99
70166;SHT30;57541;47.408;18.822;2023-09-30T03:07:31;12.05;99.99
70166;SHT30;57541;47.408;18.822;2023-09-30T03:08:05;12.01;99.99
70166;SHT30;57541;47.408;18.822;2023-09-30T03:08:37;12.07;99.99
70166;SHT30;57541;47.408;18.822;2023-09-30T03:09:08;12.01;99.99
70166;SHT30;57541;47.408;18.822;2023-09-30T03:09:43;11.93;99.99
70166;SHT30;57541;47.408;18.822;2023-09-30T03:10:15;11.87;99.99
70166;SHT30;57541;47.408;18.822;2023-09-30T03:10:52;11.80;99.99
70166;SHT30;57541;47.408;18.822;2023-09-30T03:11:24;11.76;99.99
70166;SHT30;57541;47.408;18.822;2023-09-30T03:11:55;11.59;99.99
70166;SHT30;57541;47.408;18.822;2023-09-30T03:12:27;11.65;99.99
70166;SHT30;57541;47.408;18.822;2023-09-30T03:13:00;11.55;99.99
70166;SHT30;57541;47.408;18.822;2023-09-30T03:13:33;11.55;99.99
70166;SHT30;57541;47.408;18.822;2023-09-30T03:14:05;11.58;99.99
70166;SHT30;57541;47.408;18.822;2023-09-30T03:14:39;11.56;99.99
70166;SHT30;57541;47.408;18.822;2023-09-30T03:15:11;11.59;99.99
70166;SHT30;57541;47.408;18.822;2023-09-30T03:15:43;11.55;99.99
70166;SHT30;57541;47.408;18.822;2023-09-30T03:16:15;11.55;99.99
70166;SHT30;57541;47.408;18.822;2023-09-30T03:16:46;11.53;99.99
70166;SHT30;57541;47.408;18.822;2023-09-30T03:17:18;11.46;99.99
70166;SHT30;57541;47.408;18.822;2023-09-30T03:17:50;11.50;99.99
70166;SHT30;57541;47.408;18.822;2023-09-30T03:18:24;11.39;99.99
70166;SHT30;57541;47.408;18.822;2023-09-30T03:18:58;11.38;99.99
70166;SHT30;57541;47.408;18.822;2023-09-30T03:19:30;11.39;99.99
70166;SHT30;57541;47.408;18.822;2023-09-30T03:20:02;11.40;99.99
70166;SHT30;57541;47.408;18.822;2023-09-30T03:20:34;11.39;99.99